KFYG

Washington Regional Airport

Washington, Missouri, USA
METAR KFYG 180235Z AUTO 00000KT 10SM SCT016 BKN023 08/08 A3007 RMK AO2
Observed Flight Rules
Dec-18 @ 02:35 UTC (38 minutes ago) Marginal Visual Flight Rules
Wind Visibility Clouds
Calm 10 miles
  • Scattered at 1,600' AGL
  • Broken at 2,300' AGL
Temperatures Readings
Current 8°C / 46°F
Dewpoint 8°C / 46°F
Humidity 100%
Altimeter 30.07" Hg
Pressure 1018 hPa
Elevation 149
METAR KFYG 180235Z AUTO 00000KT 10SM SCT016 BKN023 08/08 A3007 RMK AO2
Observed Flight Rules
Dec-18 @ 02:35 UTC
(38 minutes ago)
MVFR
Wind Visibility
Calm 10 miles
Clouds
  • Scattered at 1,600' AGL
  • Broken at 2,300' AGL
Temperature Dewpoint
8°C / 46°F 8°C / 46°F
Humidity Altimeter Pressure
100% 30.07" Hg 1018 hPa